Time;durP1;ratioP1;P1;durP2;ratioP2;P2;SDS_P1;SDS_P2;PMS_P1;PMS_P2;Temp;Humidity;BMP_temperature;BMP_pressure;BME280_temperature;BME280_humidity;BME280_pressure;Samples;Min_cycle;Max_cycle;Signal;HPM_P1;HPM_P2
2020/12/14 00:02:11;;;;;;;15.57;11.10;;;;;;;;;;5096413;28;20454;-74
2020/12/14 00:04:37;;;;;;;15.90;11.70;;;;;;;;;;5095755;28;20044;-74
2020/12/14 00:07:03;;;;;;;13.55;10.70;;;;;;;;;;5094470;28;20039;-74
2020/12/14 00:09:31;;;;;;;17.95;11.80;;;;;;;;;;5095239;28;20065;-74
2020/12/14 00:12:00;;;;;;;19.20;12.43;;;;;;;;;;5094012;28;20587;-74
2020/12/14 00:14:25;;;;;;;19.73;13.32;;;;;;;;;;5094535;28;20535;-74
2020/12/14 00:16:51;;;;;;;15.32;11.38;;;;;;;;;;5094986;28;20028;-74
2020/12/14 00:19:16;;;;;;;14.00;10.18;;;;;;;;;;5094946;28;20035;-74
2020/12/14 00:21:42;;;;;;;17.67;10.32;;;;;;;;;;5095094;28;20056;-74
2020/12/14 00:24:07;;;;;;;13.98;9.10;;;;;;;;;;5095094;28;20048;-74
2020/12/14 00:26:32;;;;;;;13.63;9.15;;;;;;;;;;5095030;28;20032;-74
2020/12/14 00:28:58;;;;;;;12.82;9.77;;;;;;;;;;5095231;28;20040;-74
2020/12/14 00:31:23;;;;;;;13.15;9.75;;;;;;;;;;5095010;28;20435;-74
2020/12/14 00:33:48;;;;;;;17.83;11.50;;;;;;;;;;5095306;28;20032;-74
2020/12/14 00:36:14;;;;;;;15.95;11.63;;;;;;;;;;5094303;28;20039;-74
2020/12/14 00:38:39;;;;;;;14.20;10.07;;;;;;;;;;5095285;28;20040;-74
2020/12/14 00:41:05;;;;;;;21.63;12.23;;;;;;;;;;5095484;28;20035;-74
2020/12/14 00:43:31;;;;;;;15.68;11.15;;;;;;;;;;5094400;28;20119;-74
2020/12/14 00:45:56;;;;;;;17.92;11.85;;;;;;;;;;5095014;28;20116;-74
2020/12/14 00:48:22;;;;;;;15.48;10.93;;;;;;;;;;5093454;28;20040;-74
2020/12/14 00:50:47;;;;;;;13.77;10.52;;;;;;;;;;5073286;28;20040;-74
2020/12/14 00:53:13;;;;;;;14.32;9.32;;;;;;;;;;5074999;28;20041;-74
2020/12/14 00:55:39;;;;;;;12.95;9.50;;;;;;;;;;5074856;28;20032;-74
2020/12/14 00:58:04;;;;;;;13.00;9.88;;;;;;;;;;5075261;28;20032;-74
2020/12/14 01:00:30;;;;;;;15.20;10.75;;;;;;;;;;5075217;28;20055;-74
2020/12/14 01:02:56;;;;;;;13.20;9.15;;;;;;;;;;5075356;28;20066;-74
2020/12/14 01:05:21;;;;;;;12.60;9.43;;;;;;;;;;5074540;28;20419;-74
2020/12/14 01:07:46;;;;;;;14.95;10.50;;;;;;;;;;5075284;28;20088;-74
2020/12/14 01:10:12;;;;;;;13.45;9.48;;;;;;;;;;5075644;28;20040;-74
2020/12/14 01:12:37;;;;;;;12.68;9.27;;;;;;;;;;5075173;28;20044;-74
2020/12/14 01:15:04;;;;;;;13.85;10.43;;;;;;;;;;5075361;28;20032;-74
2020/12/14 01:17:29;;;;;;;17.60;11.60;;;;;;;;;;5075333;28;20054;-74
2020/12/14 01:19:55;;;;;;;16.52;10.82;;;;;;;;;;5089181;28;20189;-74
2020/12/14 01:22:20;;;;;;;17.48;11.18;;;;;;;;;;5095054;28;20076;-74
2020/12/14 01:24:45;;;;;;;16.10;10.30;;;;;;;;;;5094317;28;20028;-74
2020/12/14 01:27:11;;;;;;;15.10;9.77;;;;;;;;;;5093592;28;20485;-74
2020/12/14 01:29:36;;;;;;;12.63;9.43;;;;;;;;;;5093744;28;20426;-74
2020/12/14 01:32:01;;;;;;;15.98;11.07;;;;;;;;;;5093859;28;20036;-74
2020/12/14 01:34:27;;;;;;;14.82;10.25;;;;;;;;;;5093881;28;20028;-73
2020/12/14 01:36:52;;;;;;;18.13;10.20;;;;;;;;;;5093877;28;20054;-73
2020/12/14 01:39:18;;;;;;;12.68;9.30;;;;;;;;;;5094260;28;20059;-73
2020/12/14 01:41:43;;;;;;;11.73;9.27;;;;;;;;;;5094171;28;20032;-73
2020/12/14 01:44:10;;;;;;;13.93;8.68;;;;;;;;;;5094218;28;20044;-73
2020/12/14 01:46:40;;;;;;;11.25;8.52;;;;;;;;;;5093682;28;20032;-73
2020/12/14 01:49:06;;;;;;;13.50;8.77;;;;;;;;;;5094012;28;20043;-74
2020/12/14 01:51:31;;;;;;;13.80;9.07;;;;;;;;;;5092790;28;20390;-74
2020/12/14 01:53:59;;;;;;;12.43;8.73;;;;;;;;;;5093919;28;20028;-74
2020/12/14 01:56:28;;;;;;;12.45;9.23;;;;;;;;;;5094046;28;20028;-73
2020/12/14 01:58:53;;;;;;;11.95;8.90;;;;;;;;;;5094275;28;20041;-73
2020/12/14 02:01:18;;;;;;;15.38;10.52;;;;;;;;;;5093960;28;20032;-74
2020/12/14 02:03:44;;;;;;;13.25;8.32;;;;;;;;;;5094513;28;20117;-73
2020/12/14 02:06:09;;;;;;;18.85;11.40;;;;;;;;;;5094204;28;20096;-73
2020/12/14 02:08:34;;;;;;;15.68;10.20;;;;;;;;;;5094367;28;20123;-73
2020/12/14 02:11:00;;;;;;;14.75;10.02;;;;;;;;;;5100468;28;20040;-73
2020/12/14 02:13:30;;;;;;;16.13;10.68;;;;;;;;;;5114883;28;20036;-74
2020/12/14 02:15:55;;;;;;;13.82;9.95;;;;;;;;;;5114521;28;20545;-73
2020/12/14 02:18:20;;;;;;;17.50;11.07;;;;;;;;;;5114624;28;20070;-73
2020/12/14 02:20:46;;;;;;;15.23;10.60;;;;;;;;;;5114306;28;20035;-73
2020/12/14 02:23:11;;;;;;;18.35;11.25;;;;;;;;;;5114338;28;20446;-74
2020/12/14 02:25:37;;;;;;;19.83;11.50;;;;;;;;;;5114302;28;20453;-74
2020/12/14 02:28:02;;;;;;;12.60;9.18;;;;;;;;;;5114919;28;20036;-73
2020/12/14 02:30:27;;;;;;;16.27;10.65;;;;;;;;;;5114251;28;20023;-74
2020/12/14 02:32:53;;;;;;;16.23;10.98;;;;;;;;;;5114481;28;20088;-73
2020/12/14 02:35:18;;;;;;;14.25;10.35;;;;;;;;;;5114814;28;20035;-73
2020/12/14 02:37:43;;;;;;;22.00;11.90;;;;;;;;;;5115691;28;20065;-73
2020/12/14 02:40:09;;;;;;;19.20;10.95;;;;;;;;;;5118288;28;20116;-73
2020/12/14 02:42:34;;;;;;;27.42;14.50;;;;;;;;;;5118113;27;20032;-74
2020/12/14 02:45:00;;;;;;;17.65;11.55;;;;;;;;;;5117399;28;20032;-74
2020/12/14 02:47:25;;;;;;;19.27;11.77;;;;;;;;;;5116652;27;20396;-74
2020/12/14 02:49:51;;;;;;;17.70;11.10;;;;;;;;;;5115325;28;20050;-74
2020/12/14 02:52:16;;;;;;;19.08;10.73;;;;;;;;;;5097806;28;20119;-74
2020/12/14 02:54:44;;;;;;;17.35;11.18;;;;;;;;;;5098380;28;20031;-74
2020/12/14 02:57:09;;;;;;;15.43;10.00;;;;;;;;;;5098617;28;20036;-74
2020/12/14 02:59:35;;;;;;;19.67;10.13;;;;;;;;;;5098556;28;20070;-74
2020/12/14 03:02:01;;;;;;;12.65;8.80;;;;;;;;;;5098703;28;20085;-74
2020/12/14 03:04:26;;;;;;;14.38;10.25;;;;;;;;;;5098265;28;20048;-75
2020/12/14 03:06:52;;;;;;;27.17;12.75;;;;;;;;;;5097276;28;20059;-75
2020/12/14 03:09:20;;;;;;;18.35;10.40;;;;;;;;;;5097210;28;20067;-75
2020/12/14 03:11:46;;;;;;;27.35;13.07;;;;;;;;;;5095926;28;20120;-75
2020/12/14 03:14:12;;;;;;;24.58;14.00;;;;;;;;;;5096756;28;20032;-75
2020/12/14 03:16:46;;;;;;;19.85;11.23;;;;;;;;;;5095514;28;20077;-77
2020/12/14 03:19:11;;;;;;;14.75;9.23;;;;;;;;;;5075756;28;20555;-77
2020/12/14 03:21:37;;;;;;;20.05;10.70;;;;;;;;;;5076239;28;20118;-76
2020/12/14 03:24:03;;;;;;;18.73;9.55;;;;;;;;;;5077167;28;20040;-76
2020/12/14 03:26:29;;;;;;;16.75;9.65;;;;;;;;;;5076632;28;20036;-76
2020/12/14 03:28:54;;;;;;;15.15;9.98;;;;;;;;;;5076228;28;20036;-76
2020/12/14 03:31:20;;;;;;;16.60;9.73;;;;;;;;;;5075613;28;20032;-76
2020/12/14 03:33:46;;;;;;;17.50;9.55;;;;;;;;;;5075770;28;20489;-76
2020/12/14 03:36:11;;;;;;;16.33;9.02;;;;;;;;;;5075681;28;20036;-76
2020/12/14 03:38:37;;;;;;;12.20;7.93;;;;;;;;;;5075346;28;20040;-77
2020/12/14 03:41:04;;;;;;;14.60;7.95;;;;;;;;;;5075483;28;20035;-76
2020/12/14 03:43:29;;;;;;;13.15;8.00;;;;;;;;;;5075272;28;20127;-77
2020/12/14 03:45:54;;;;;;;7.88;6.03;;;;;;;;;;5075431;28;20068;-76
2020/12/14 03:48:20;;;;;;;15.25;7.22;;;;;;;;;;5090276;28;20038;-76
2020/12/14 03:50:46;;;;;;;12.98;6.35;;;;;;;;;;5094452;28;20028;-76
2020/12/14 03:53:12;;;;;;;9.63;5.53;;;;;;;;;;5075926;28;20479;-76
2020/12/14 03:55:37;;;;;;;8.85;6.03;;;;;;;;;;5075797;28;20032;-77
2020/12/14 03:58:03;;;;;;;13.68;8.20;;;;;;;;;;5074816;28;20044;-76
2020/12/14 04:00:28;;;;;;;10.43;7.05;;;;;;;;;;5074472;28;20052;-76
2020/12/14 04:02:54;;;;;;;12.20;6.53;;;;;;;;;;5074660;28;20123;-76
2020/12/14 04:05:19;;;;;;;12.25;6.38;;;;;;;;;;5074205;28;20113;-76
2020/12/14 04:07:45;;;;;;;11.95;6.97;;;;;;;;;;5074265;28;20044;-76
2020/12/14 04:10:10;;;;;;;12.00;4.55;;;;;;;;;;5074009;28;20040;-76
2020/12/14 04:12:35;;;;;;;14.48;5.22;;;;;;;;;;5093168;28;20085;-75
2020/12/14 04:15:01;;;;;;;6.85;4.68;;;;;;;;;;5094378;28;20055;-76
2020/12/14 04:17:27;;;;;;;5.68;3.58;;;;;;;;;;5093208;28;20043;-76
2020/12/14 04:19:52;;;;;;;7.43;4.05;;;;;;;;;;5093466;28;20036;-75
2020/12/14 04:22:18;;;;;;;5.75;3.83;;;;;;;;;;5094370;28;20058;-75
2020/12/14 04:24:43;;;;;;;6.25;4.05;;;;;;;;;;5094524;28;20043;-75
2020/12/14 04:27:08;;;;;;;10.52;3.40;;;;;;;;;;5094351;28;20036;-75
2020/12/14 04:29:34;;;;;;;7.50;3.28;;;;;;;;;;5094113;28;20027;-75
2020/12/14 04:31:59;;;;;;;7.00;4.13;;;;;;;;;;5094081;28;20056;-75
2020/12/14 04:34:25;;;;;;;7.32;3.45;;;;;;;;;;5093151;28;20028;-75
2020/12/14 04:36:50;;;;;;;9.68;2.90;;;;;;;;;;5094196;28;20039;-75
2020/12/14 04:39:16;;;;;;;5.00;3.13;;;;;;;;;;5094289;28;20070;-75
2020/12/14 04:41:42;;;;;;;6.43;3.15;;;;;;;;;;5094160;28;20028;-75
2020/12/14 04:44:08;;;;;;;6.55;2.67;;;;;;;;;;5094107;28;20465;-75
2020/12/14 04:46:34;;;;;;;5.00;2.80;;;;;;;;;;5093935;28;20485;-75
2020/12/14 04:49:02;;;;;;;7.45;3.15;;;;;;;;;;5094035;28;20036;-75
2020/12/14 04:51:28;;;;;;;7.00;3.08;;;;;;;;;;5092336;28;20036;-75
2020/12/14 04:53:53;;;;;;;4.65;2.92;;;;;;;;;;5093991;28;20549;-75
2020/12/14 04:56:25;;;;;;;6.57;2.78;;;;;;;;;;5093770;28;20386;-75
2020/12/14 04:58:52;;;;;;;4.95;2.67;;;;;;;;;;5092582;28;20079;-75
2020/12/14 05:01:17;;;;;;;7.80;3.30;;;;;;;;;;5092761;28;20071;-75
2020/12/14 05:03:43;;;;;;;4.38;2.92;;;;;;;;;;5093836;28;20071;-75
2020/12/14 05:06:08;;;;;;;6.97;2.95;;;;;;;;;;5093557;28;20040;-75
2020/12/14 05:08:33;;;;;;;5.00;3.10;;;;;;;;;;5093863;28;20032;-75
2020/12/14 05:10:59;;;;;;;7.25;2.80;;;;;;;;;;5093551;28;20508;-75
2020/12/14 05:13:26;;;;;;;5.18;2.83;;;;;;;;;;5093449;28;20444;-75
2020/12/14 05:15:51;;;;;;;7.70;3.10;;;;;;;;;;5093507;28;20035;-75
2020/12/14 05:18:22;;;;;;;4.60;2.30;;;;;;;;;;5093587;28;20131;-75
2020/12/14 05:21:01;;;;;;;8.45;2.90;;;;;;;;;;5092445;28;20040;-75
2020/12/14 05:23:28;;;;;;;7.30;2.72;;;;;;;;;;5093335;28;20031;-75
2020/12/14 05:26:07;;;;;;;6.32;3.00;;;;;;;;;;5093345;28;20035;-75
2020/12/14 05:28:34;;;;;;;4.72;2.30;;;;;;;;;;5093518;28;20089;-75
2020/12/14 05:31:00;;;;;;;4.97;2.13;;;;;;;;;;5093286;28;20036;-75
2020/12/14 05:33:27;;;;;;;3.85;2.40;;;;;;;;;;5093450;28;20040;-75
2020/12/14 05:35:52;;;;;;;8.13;3.10;;;;;;;;;;5093202;28;20355;-75
2020/12/14 05:38:28;;;;;;;4.45;2.55;;;;;;;;;;5093406;28;20039;-75
2020/12/14 05:40:55;;;;;;;;;;;;;;;;;;5093967;28;20039;-75
2020/12/14 05:43:31;;;;;;;5.80;2.30;;;;;;;;;;5093206;28;19907;-75
2020/12/14 05:46:10;;;;;;;4.88;2.38;;;;;;;;;;5093450;28;20035;-75
2020/12/14 05:48:35;;;;;;;4.38;2.58;;;;;;;;;;5092706;28;20032;-75
2020/12/14 05:51:03;;;;;;;5.15;2.20;;;;;;;;;;5092891;28;20035;-75
2020/12/14 05:53:39;;;;;;;5.97;2.70;;;;;;;;;;5093175;28;20443;-74
2020/12/14 05:56:06;;;;;;;5.50;2.47;;;;;;;;;;5093233;28;20043;-74
2020/12/14 05:58:33;;;;;;;4.22;2.63;;;;;;;;;;5093125;28;20413;-75
2020/12/14 06:01:01;;;;;;;4.15;2.22;;;;;;;;;;5093007;28;20059;-75
2020/12/14 06:03:26;;;;;;;7.70;3.22;;;;;;;;;;5093080;28;20044;-75
2020/12/14 06:06:04;;;;;;;3.45;2.20;;;;;;;;;;5092772;28;20035;-74
2020/12/14 06:08:44;;;;;;;7.00;2.92;;;;;;;;;;5091941;28;20035;-74
2020/12/14 06:11:14;;;;;;;5.63;2.58;;;;;;;;;;5092952;28;20040;-75
2020/12/14 06:13:49;;;;;;;10.07;2.88;;;;;;;;;;5095249;28;20071;-75
2020/12/14 06:16:20;;;;;;;5.80;2.83;;;;;;;;;;5096745;28;20157;-75
2020/12/14 06:18:46;;;;;;;8.93;4.07;;;;;;;;;;5096850;28;20690;-74
2020/12/14 06:21:16;;;;;;;4.05;2.28;;;;;;;;;;5096560;28;20119;-75
2020/12/14 06:23:44;;;;;;;2.85;2.08;;;;;;;;;;5096893;28;20107;-75
2020/12/14 06:26:10;;;;;;;6.25;2.78;;;;;;;;;;5095514;28;20032;-75
2020/12/14 06:28:35;;;;;;;4.57;2.20;;;;;;;;;;5096780;28;20493;-74
2020/12/14 06:31:01;;;;;;;7.20;2.42;;;;;;;;;;5096531;28;20039;-74
2020/12/14 06:33:38;;;;;;;5.85;2.58;;;;;;;;;;5096520;28;20528;-75
2020/12/14 06:36:24;;;;;;;3.92;2.20;;;;;;;;;;5096438;28;20036;-75
2020/12/14 06:38:51;;;;;;;4.93;2.40;;;;;;;;;;5096567;28;20043;-75
2020/12/14 06:41:24;;;;;;;7.05;2.83;;;;;;;;;;5096170;28;20039;-75
2020/12/14 06:44:10;;;;;;;6.88;2.10;;;;;;;;;;5096320;28;20036;-75
2020/12/14 06:46:36;;;;;;;8.05;2.50;;;;;;;;;;5096194;28;20044;-75
2020/12/14 06:49:02;;;;;;;3.25;1.90;;;;;;;;;;5096148;28;20059;-74
2020/12/14 06:51:50;;;;;;;5.32;2.25;;;;;;;;;;5096144;28;20373;-74
2020/12/14 06:54:42;;;;;;;9.43;3.00;;;;;;;;;;5096198;28;20039;-74
2020/12/14 06:57:10;;;;;;;3.75;2.03;;;;;;;;;;5095784;28;20042;-74
2020/12/14 06:59:37;;;;;;;6.82;2.45;;;;;;;;;;5095871;28;20486;-74
2020/12/14 07:02:05;;;;;;;5.80;1.95;;;;;;;;;;5095928;28;20039;-74
2020/12/14 07:04:33;;;;;;;6.10;2.03;;;;;;;;;;5096269;28;20483;-75
2020/12/14 07:07:04;;;;;;;9.25;3.10;;;;;;;;;;5096030;28;20370;-73
2020/12/14 07:09:34;;;;;;;7.57;2.75;;;;;;;;;;5095942;28;20043;-76
2020/12/14 07:12:09;;;;;;;3.65;2.10;;;;;;;;;;5095477;28;20039;-75
2020/12/14 07:14:48;;;;;;;5.35;2.60;;;;;;;;;;5095794;28;20047;-75
2020/12/14 07:17:35;;;;;;;5.00;1.90;;;;;;;;;;5095723;28;20040;-75
2020/12/14 07:20:00;;;;;;;4.13;1.63;;;;;;;;;;5094603;28;20130;-75
2020/12/14 07:22:50;;;;;;;4.95;2.42;;;;;;;;;;5095747;28;20087;-75
2020/12/14 07:25:25;;;;;;;10.98;2.00;;;;;;;;;;5092906;28;20093;-76
2020/12/14 07:27:51;;;;;;;5.45;2.08;;;;;;;;;;5094386;28;20047;-76
2020/12/14 07:30:19;;;;;;;6.10;2.05;;;;;;;;;;5092228;28;20036;-77
2020/12/14 07:32:46;;;;;;;4.05;2.00;;;;;;;;;;5094523;28;20063;-75
2020/12/14 07:35:12;;;;;;;3.15;1.85;;;;;;;;;;5094205;28;20039;-74
2020/12/14 07:37:37;;;;;;;2.72;1.70;;;;;;;;;;5095373;28;20116;-74
2020/12/14 07:40:10;;;;;;;4.60;1.80;;;;;;;;;;5095376;28;20043;-74
2020/12/14 07:42:41;;;;;;;5.53;2.17;;;;;;;;;;5095213;28;20028;-75
2020/12/14 07:45:26;;;;;;;4.25;2.50;;;;;;;;;;5094108;28;20093;-74
2020/12/14 07:47:53;;;;;;;7.15;2.47;;;;;;;;;;5074443;28;20387;-74
2020/12/14 07:50:20;;;;;;;8.45;2.80;;;;;;;;;;5074536;28;20029;-74
2020/12/14 07:52:46;;;;;;;5.97;2.55;;;;;;;;;;5074494;28;20036;-74
2020/12/14 07:55:13;;;;;;;9.88;6.25;;;;;;;;;;5073181;28;20521;-74
2020/12/14 07:57:41;;;;;;;7.25;4.03;;;;;;;;;;5074209;28;20119;-75
2020/12/14 08:00:12;;;;;;;9.00;2.75;;;;;;;;;;5074497;28;20091;-76
2020/12/14 08:02:39;;;;;;;6.03;2.28;;;;;;;;;;5074576;28;20064;-75
2020/12/14 08:05:07;;;;;;;4.22;2.30;;;;;;;;;;5074554;28;20035;-76
2020/12/14 08:07:46;;;;;;;5.68;1.98;;;;;;;;;;5074587;28;20040;-75
2020/12/14 08:10:12;;;;;;;4.88;2.17;;;;;;;;;;5074117;28;20075;-74
2020/12/14 08:12:40;;;;;;;5.10;2.03;;;;;;;;;;5092704;28;20500;-75
2020/12/14 08:15:14;;;;;;;6.20;1.95;;;;;;;;;;5097132;28;20051;-73
2020/12/14 08:17:40;;;;;;;4.78;2.05;;;;;;;;;;5095255;28;20036;-73
2020/12/14 08:20:07;;;;;;;3.88;2.20;;;;;;;;;;5094680;28;20051;-74
2020/12/14 08:22:33;;;;;;;5.20;2.28;;;;;;;;;;5094465;28;20063;-74
2020/12/14 08:25:00;;;;;;;5.35;2.00;;;;;;;;;;5094577;28;20044;-75
2020/12/14 08:27:49;;;;;;;5.72;2.65;;;;;;;;;;5093549;28;20063;-76
2020/12/14 08:30:18;;;;;;;6.30;2.75;;;;;;;;;;5093296;28;20032;-74
2020/12/14 08:32:43;;;;;;;3.58;2.03;;;;;;;;;;5094474;28;20032;-75
2020/12/14 08:35:22;;;;;;;5.70;2.35;;;;;;;;;;5094118;28;20035;-74
2020/12/14 08:37:49;;;;;;;8.70;2.22;;;;;;;;;;5094248;28;20068;-74
2020/12/14 08:40:14;;;;;;;6.45;2.13;;;;;;;;;;5083333;28;20028;-74
2020/12/14 08:42:40;;;;;;;5.00;2.28;;;;;;;;;;5084235;28;20073;-74
2020/12/14 08:45:13;;;;;;;3.83;1.98;;;;;;;;;;5082259;28;20078;-73
2020/12/14 08:47:40;;;;;;;4.43;1.83;;;;;;;;;;5092212;28;20036;-74
2020/12/14 08:50:08;;;;;;;4.75;2.33;;;;;;;;;;5096789;28;20064;-74
2020/12/14 08:52:33;;;;;;;4.68;2.33;;;;;;;;;;5092763;28;20036;-74
2020/12/14 08:54:59;;;;;;;5.50;2.50;;;;;;;;;;5093610;28;20126;-74
2020/12/14 08:57:29;;;;;;;8.48;3.13;;;;;;;;;;5093838;28;20070;-73
2020/12/14 09:00:24;;;;;;;4.95;2.20;;;;;;;;;;5094634;28;20048;-74
2020/12/14 09:02:58;;;;;;;4.45;2.60;;;;;;;;;;5088837;28;20474;-74
2020/12/14 09:05:24;;;;;;;9.38;4.47;;;;;;;;;;5093587;28;20066;-75
2020/12/14 09:07:49;;;;;;;7.78;3.35;;;;;;;;;;5094308;28;20043;-75
2020/12/14 09:10:19;;;;;;;4.15;2.50;;;;;;;;;;5092497;28;20040;-74
2020/12/14 09:12:45;;;;;;;4.32;1.88;;;;;;;;;;5093437;28;20466;-75
2020/12/14 09:15:10;;;;;;;5.70;2.90;;;;;;;;;;5093714;28;20035;-73
2020/12/14 09:17:36;;;;;;;5.30;2.45;;;;;;;;;;5094011;28;20047;-73
2020/12/14 09:20:03;;;;;;;8.00;1.98;;;;;;;;;;5093100;28;20393;-73
2020/12/14 09:22:28;;;;;;;3.45;2.38;;;;;;;;;;5094217;28;20032;-73
2020/12/14 09:24:54;;;;;;;5.55;2.78;;;;;;;;;;5095115;28;20489;-73
2020/12/14 09:27:20;;;;;;;6.32;2.35;;;;;;;;;;5094383;28;20036;-74
2020/12/14 09:29:46;;;;;;;8.25;2.00;;;;;;;;;;5093530;28;20032;-74
2020/12/14 09:32:12;;;;;;;4.72;2.05;;;;;;;;;;5093568;28;20478;-75
2020/12/14 09:34:41;;;;;;;6.90;1.95;;;;;;;;;;5092407;28;20043;-75
2020/12/14 09:37:08;;;;;;;4.53;2.00;;;;;;;;;;5093724;28;20479;-73
2020/12/14 09:39:34;;;;;;;5.10;3.03;;;;;;;;;;5095286;28;20410;-74
2020/12/14 09:42:00;;;;;;;5.13;2.00;;;;;;;;;;5094929;28;20039;-75
2020/12/14 09:44:30;;;;;;;3.83;2.03;;;;;;;;;;5095074;28;20066;-74
2020/12/14 09:46:58;;;;;;;5.18;2.70;;;;;;;;;;5094811;28;20060;-74
2020/12/14 09:49:24;;;;;;;3.63;2.25;;;;;;;;;;5098741;28;20103;-73
2020/12/14 09:51:49;;;;;;;4.28;2.20;;;;;;;;;;5099937;28;20083;-73
2020/12/14 09:54:15;;;;;;;5.93;2.45;;;;;;;;;;5098902;28;20036;-73
2020/12/14 09:56:41;;;;;;;4.43;2.50;;;;;;;;;;5100516;28;20032;-73
2020/12/14 09:59:07;;;;;;;5.65;2.10;;;;;;;;;;5099418;28;20405;-73
2020/12/14 10:01:32;;;;;;;4.38;1.95;;;;;;;;;;5099229;28;20062;-73
2020/12/14 10:03:59;;;;;;;4.40;2.25;;;;;;;;;;5097402;28;20066;-75
2020/12/14 10:06:25;;;;;;;2.33;1.73;;;;;;;;;;5096273;28;20048;-74
2020/12/14 10:08:51;;;;;;;4.38;2.40;;;;;;;;;;5096718;28;20063;-73
2020/12/14 10:11:16;;;;;;;5.57;3.60;;;;;;;;;;5096710;28;20074;-74
2020/12/14 10:13:43;;;;;;;5.47;2.53;;;;;;;;;;5096831;28;20055;-74
2020/12/14 10:16:12;;;;;;;5.97;1.95;;;;;;;;;;5096923;28;20036;-75
2020/12/14 10:18:37;;;;;;;4.03;2.00;;;;;;;;;;5097024;28;20173;-76
2020/12/14 10:21:03;;;;;;;4.03;1.90;;;;;;;;;;5096910;28;20052;-75
2020/12/14 10:23:29;;;;;;;4.68;2.10;;;;;;;;;;5096523;28;20488;-76
2020/12/14 10:25:54;;;;;;;6.75;2.38;;;;;;;;;;5096467;28;20044;-75
2020/12/14 10:28:20;;;;;;;3.05;1.88;;;;;;;;;;5095656;28;20118;-75
2020/12/14 10:30:45;;;;;;;6.18;2.03;;;;;;;;;;5096398;28;20050;-76
2020/12/14 10:33:11;;;;;;;4.00;1.88;;;;;;;;;;5096631;28;20089;-76
2020/12/14 10:35:36;;;;;;;3.90;1.92;;;;;;;;;;5096347;28;20051;-76
2020/12/14 10:38:02;;;;;;;3.08;1.70;;;;;;;;;;5096284;28;20077;-75
2020/12/14 10:40:28;;;;;;;3.80;1.67;;;;;;;;;;5095215;28;20062;-75
2020/12/14 10:42:54;;;;;;;3.63;1.80;;;;;;;;;;5096488;28;20020;-76
2020/12/14 10:45:19;;;;;;;2.33;1.60;;;;;;;;;;5096317;28;20072;-75
2020/12/14 10:47:45;;;;;;;4.57;1.92;;;;;;;;;;5096448;28;20059;-76
2020/12/14 10:50:11;;;;;;;4.63;1.80;;;;;;;;;;5094687;28;20500;-75
2020/12/14 10:52:37;;;;;;;6.70;1.60;;;;;;;;;;5096067;28;20441;-75
2020/12/14 10:55:04;;;;;;;3.92;1.88;;;;;;;;;;5096203;28;20042;-75
2020/12/14 10:57:30;;;;;;;5.68;2.30;;;;;;;;;;5095603;28;20043;-75
2020/12/14 10:59:57;;;;;;;1.98;1.50;;;;;;;;;;5095524;28;20409;-75
2020/12/14 11:02:23;;;;;;;4.40;1.88;;;;;;;;;;5095608;28;20032;-74
2020/12/14 11:04:49;;;;;;;5.55;1.88;;;;;;;;;;5095243;28;20039;-75
2020/12/14 11:07:14;;;;;;;4.28;1.88;;;;;;;;;;5093657;28;20055;-75
2020/12/14 11:09:40;;;;;;;4.63;2.53;;;;;;;;;;5095516;28;20410;-75
2020/12/14 11:12:06;;;;;;;3.72;1.85;;;;;;;;;;5095342;28;20032;-75
2020/12/14 11:14:34;;;;;;;2.95;1.70;;;;;;;;;;5095645;28;20082;-75
2020/12/14 11:17:01;;;;;;;2.35;1.70;;;;;;;;;;5095750;28;20070;-75
2020/12/14 11:19:27;;;;;;;4.50;2.25;;;;;;;;;;5094069;28;20067;-75
2020/12/14 11:21:53;;;;;;;4.25;1.83;;;;;;;;;;5093945;28;20056;-75
2020/12/14 11:24:19;;;;;;;2.45;1.40;;;;;;;;;;5093815;28;20028;-75
2020/12/14 11:26:45;;;;;;;2.88;1.55;;;;;;;;;;5095386;28;20086;-77
2020/12/14 11:29:11;;;;;;;8.48;2.08;;;;;;;;;;5096127;28;20039;-76
2020/12/14 11:31:37;;;;;;;4.38;1.83;;;;;;;;;;5095846;28;20064;-77
2020/12/14 11:34:02;;;;;;;6.68;1.45;;;;;;;;;;5095299;28;20445;-78
2020/12/14 11:36:29;;;;;;;6.93;1.70;;;;;;;;;;5095584;28;20063;-75
2020/12/14 11:38:56;;;;;;;4.78;1.70;;;;;;;;;;5095163;28;20062;-76
2020/12/14 11:41:22;;;;;;;3.72;1.70;;;;;;;;;;5094928;28;20024;-75
2020/12/14 11:43:47;;;;;;;5.28;1.45;;;;;;;;;;5095210;28;20032;-76
2020/12/14 11:46:13;;;;;;;2.45;1.38;;;;;;;;;;5095208;28;20591;-77
2020/12/14 11:48:38;;;;;;;4.10;1.60;;;;;;;;;;5079767;28;20478;-76
2020/12/14 11:51:04;;;;;;;3.22;1.63;;;;;;;;;;5074560;28;20036;-75
2020/12/14 11:53:30;;;;;;;1.98;1.50;;;;;;;;;;5074875;28;20081;-74
2020/12/14 11:55:55;;;;;;;2.85;1.42;;;;;;;;;;5074790;28;20028;-74
2020/12/14 11:58:20;;;;;;;1.42;1.20;;;;;;;;;;5074599;28;20405;-76
2020/12/14 12:00:46;;;;;;;11.90;7.38;;;;;;;;;;5075284;28;20066;-77
2020/12/14 12:03:11;;;;;;;6.95;4.55;;;;;;;;;;5073472;28;20119;-76
2020/12/14 12:05:36;;;;;;;3.92;2.35;;;;;;;;;;5082563;28;20119;-75
2020/12/14 12:08:02;;;;;;;5.80;3.20;;;;;;;;;;5095226;28;20378;-76
2020/12/14 12:10:27;;;;;;;4.75;3.30;;;;;;;;;;5094207;28;20381;-76
2020/12/14 12:12:53;;;;;;;4.70;2.05;;;;;;;;;;5094524;28;20035;-74
2020/12/14 12:15:18;;;;;;;5.70;1.65;;;;;;;;;;5094620;28;20082;-74
2020/12/14 12:17:44;;;;;;;2.80;1.30;;;;;;;;;;5095114;28;20028;-81
2020/12/14 12:20:09;;;;;;;10.43;5.43;;;;;;;;;;5098137;28;20453;-80
2020/12/14 12:22:35;;;;;;;4.20;2.13;;;;;;;;;;5095296;28;20032;-76
2020/12/14 12:25:01;;;;;;;3.60;1.70;;;;;;;;;;5094334;28;20470;-76
2020/12/14 12:27:26;;;;;;;2.80;1.23;;;;;;;;;;5094404;28;20034;-75
2020/12/14 12:29:52;;;;;;;2.80;1.40;;;;;;;;;;5093509;28;20111;-76
2020/12/14 12:32:17;;;;;;;3.60;1.65;;;;;;;;;;5094206;28;20477;-75
2020/12/14 12:34:42;;;;;;;5.22;1.40;;;;;;;;;;5095128;28;20429;-74
2020/12/14 12:37:08;;;;;;;3.00;1.35;;;;;;;;;;5099023;28;20059;-75
2020/12/14 12:39:34;;;;;;;2.13;1.30;;;;;;;;;;5096570;28;20036;-75
2020/12/14 12:41:59;;;;;;;4.05;1.42;;;;;;;;;;5094113;28;20044;-71
2020/12/14 12:44:25;;;;;;;3.97;1.92;;;;;;;;;;5093930;28;20097;-74
2020/12/14 12:46:51;;;;;;;17.77;4.28;;;;;;;;;;5093782;28;20505;-74
2020/12/14 12:49:18;;;;;;;15.55;3.58;;;;;;;;;;5093750;28;20044;-73
2020/12/14 12:51:44;;;;;;;8.63;2.53;;;;;;;;;;5093730;28;20055;-74
2020/12/14 12:54:11;;;;;;;8.23;1.70;;;;;;;;;;5093614;28;20039;-73
2020/12/14 12:56:36;;;;;;;7.30;1.90;;;;;;;;;;5093357;28;20032;-74
2020/12/14 12:59:02;;;;;;;4.70;1.58;;;;;;;;;;5093422;28;20412;-74
2020/12/14 13:01:27;;;;;;;2.30;1.40;;;;;;;;;;5092627;28;20067;-74
2020/12/14 13:03:52;;;;;;;2.20;1.45;;;;;;;;;;5093770;28;20089;-74
2020/12/14 13:06:20;;;;;;;2.83;1.38;;;;;;;;;;5093762;28;20093;-74
2020/12/14 13:08:45;;;;;;;2.42;1.40;;;;;;;;;;5092402;28;20032;-74
2020/12/14 13:11:10;;;;;;;6.20;3.25;;;;;;;;;;5093581;28;20043;-74
2020/12/14 13:13:36;;;;;;;5.05;3.22;;;;;;;;;;5093550;28;20097;-74
2020/12/14 13:16:01;;;;;;;5.95;2.88;;;;;;;;;;5093306;28;20039;-73
2020/12/14 13:18:29;;;;;;;7.03;2.25;;;;;;;;;;5093662;28;20047;-74
2020/12/14 13:20:54;;;;;;;7.65;3.22;;;;;;;;;;5093635;28;20035;-74
2020/12/14 13:23:19;;;;;;;4.05;1.77;;;;;;;;;;5091285;28;20058;-73
2020/12/14 13:25:45;;;;;;;5.13;2.15;;;;;;;;;;5093180;28;20513;-74
2020/12/14 13:28:10;;;;;;;3.67;1.92;;;;;;;;;;5093593;28;20086;-74
2020/12/14 13:30:35;;;;;;;4.70;2.38;;;;;;;;;;5092337;28;20500;-73
2020/12/14 13:33:01;;;;;;;4.10;2.17;;;;;;;;;;5093400;28;20089;-74
2020/12/14 13:35:26;;;;;;;3.03;1.90;;;;;;;;;;5093183;28;20114;-73
2020/12/14 13:37:54;;;;;;;3.85;1.83;;;;;;;;;;5093377;28;20035;-73
2020/12/14 13:40:20;;;;;;;4.15;2.28;;;;;;;;;;5093411;28;20462;-74
2020/12/14 13:42:45;;;;;;;2.60;1.58;;;;;;;;;;5093401;28;20050;-73
2020/12/14 13:45:11;;;;;;;3.45;1.58;;;;;;;;;;5092843;28;20032;-74
2020/12/14 13:47:36;;;;;;;3.53;1.55;;;;;;;;;;5093150;28;20510;-74
2020/12/14 13:50:03;;;;;;;3.45;1.52;;;;;;;;;;5093238;28;20058;-74
2020/12/14 13:52:32;;;;;;;2.20;1.20;;;;;;;;;;5092947;28;20060;-74
2020/12/14 13:54:58;;;;;;;1.50;1.23;;;;;;;;;;5093180;28;20093;-74
2020/12/14 13:57:23;;;;;;;2.72;1.38;;;;;;;;;;5093087;28;20036;-73
2020/12/14 13:59:49;;;;;;;2.25;1.50;;;;;;;;;;5093056;28;20048;-73
2020/12/14 14:02:14;;;;;;;3.75;1.42;;;;;;;;;;5091702;28;20103;-73
2020/12/14 14:04:40;;;;;;;2.58;1.70;;;;;;;;;;5093004;28;20539;-74
2020/12/14 14:07:06;;;;;;;3.35;1.77;;;;;;;;;;5093101;28;20028;-74
2020/12/14 14:09:32;;;;;;;2.22;1.38;;;;;;;;;;5093041;28;20043;-73
2020/12/14 14:11:58;;;;;;;3.35;1.73;;;;;;;;;;5092902;28;20401;-73
2020/12/14 14:14:24;;;;;;;3.08;1.95;;;;;;;;;;5093150;28;20040;-74
2020/12/14 14:16:50;;;;;;;3.92;1.90;;;;;;;;;;5092851;28;20028;-72
2020/12/14 14:19:16;;;;;;;4.47;2.25;;;;;;;;;;5093316;28;20043;-73
2020/12/14 14:21:41;;;;;;;3.63;1.90;;;;;;;;;;5092219;28;20028;-74
2020/12/14 14:24:06;;;;;;;2.20;1.55;;;;;;;;;;5092159;28;20036;-74
2020/12/14 14:26:32;;;;;;;2.75;1.60;;;;;;;;;;5091661;28;20044;-73
2020/12/14 14:28:57;;;;;;;2.63;1.48;;;;;;;;;;5092620;28;20031;-73
2020/12/14 14:31:22;;;;;;;4.13;1.70;;;;;;;;;;5092929;28;20044;-73
2020/12/14 14:33:48;;;;;;;3.45;2.08;;;;;;;;;;5094506;28;20036;-73
2020/12/14 14:36:13;;;;;;;4.30;2.40;;;;;;;;;;5096870;28;20032;-73
2020/12/14 14:38:39;;;;;;;2.10;1.55;;;;;;;;;;5097306;28;20031;-73